createdAt,value
2018-11-13T00:02:14.756Z,20.23
2018-11-13T00:04:45.095Z,17.67
2018-11-13T00:07:15.420Z,20.47
2018-11-13T00:10:01.562Z,18.43
2018-11-13T00:12:32.169Z,19.43
2018-11-13T00:15:02.808Z,18.73
2018-11-13T00:17:33.437Z,18.97
2018-11-13T00:20:04.423Z,21.53
2018-11-13T00:22:35.214Z,17.13
2018-11-13T00:25:07.159Z,21.07
2018-11-13T00:27:37.821Z,18.23
2018-11-13T00:30:12.409Z,19.07
2018-11-13T00:32:43.532Z,21.50
2018-11-13T00:35:14.944Z,18.10
2018-11-13T00:37:46.489Z,16.73
2018-11-13T00:40:18.134Z,18.40
2018-11-13T00:42:49.223Z,16.33
2018-11-13T00:45:20.025Z,16.03
2018-11-13T00:47:51.473Z,16.27
2018-11-13T00:50:22.153Z,19.40
2018-11-13T00:52:53.091Z,15.10
2018-11-13T00:55:23.657Z,16.80
2018-11-13T00:57:54.223Z,15.30
2018-11-13T01:00:25.248Z,14.40
2018-11-13T01:02:56.276Z,18.50
2018-11-13T01:05:26.932Z,16.67
2018-11-13T01:07:57.663Z,16.03
2018-11-13T01:10:28.252Z,15.90
2018-11-13T01:12:58.844Z,17.13
2018-11-13T01:15:29.408Z,17.40
2018-11-13T01:18:00.033Z,16.17
2018-11-13T01:20:30.616Z,17.10
2018-11-13T01:23:01.215Z,15.40
2018-11-13T01:25:31.835Z,16.23
2018-11-13T01:28:02.492Z,14.10
2018-11-13T01:30:33.066Z,15.40
2018-11-13T01:33:03.860Z,13.80
2018-11-13T01:35:34.459Z,11.33
2018-11-13T01:38:05.096Z,11.80
2018-11-13T01:40:35.804Z,16.90
2018-11-13T01:43:07.139Z,12.33
2018-11-13T01:45:37.751Z,13.00
2018-11-13T01:48:09.060Z,14.20
2018-11-13T01:50:39.520Z,12.17
2018-11-13T01:53:10.117Z,17.80
2018-11-13T01:55:41.012Z,16.33
2018-11-13T01:58:11.625Z,14.93
2018-11-13T02:00:42.228Z,15.83
2018-11-13T02:03:12.980Z,19.13
2018-11-13T02:05:44.718Z,16.20
2018-11-13T02:08:15.284Z,13.00
2018-11-13T02:10:45.913Z,17.00
2018-11-13T02:13:16.524Z,18.77
2018-11-13T02:15:47.149Z,17.57
2018-11-13T02:18:19.485Z,18.50
2018-11-13T02:20:49.772Z,16.17
2018-11-13T02:23:20.347Z,15.67
2018-11-13T02:25:50.957Z,13.03
2018-11-13T02:28:21.747Z,13.00
2018-11-13T02:30:52.341Z,12.63
2018-11-13T02:33:22.932Z,10.57
2018-11-13T02:35:53.628Z,12.40
2018-11-13T02:38:24.366Z,13.03
2018-11-13T02:40:54.993Z,13.23
2018-11-13T02:43:25.672Z,9.83
2018-11-13T02:45:56.316Z,12.80
2018-11-13T02:48:26.926Z,10.97
2018-11-13T02:50:57.762Z,12.63
2018-11-13T02:53:28.381Z,11.20
2018-11-13T02:55:59.012Z,12.17
2018-11-13T02:58:29.640Z,14.17
2018-11-13T03:01:00.265Z,11.03
2018-11-13T03:03:31.108Z,10.37
2018-11-13T03:06:01.781Z,9.07
2018-11-13T03:08:32.359Z,10.10
2018-11-13T03:11:02.954Z,9.90
2018-11-13T03:13:33.579Z,9.37
2018-11-13T03:16:04.607Z,9.17
2018-11-13T03:18:35.903Z,9.13
2018-11-13T03:21:06.772Z,10.67
2018-11-13T03:23:37.431Z,9.47
2018-11-13T03:26:08.433Z,12.23
2018-11-13T03:28:39.031Z,13.63
2018-11-13T03:31:09.701Z,13.43
2018-11-13T03:33:40.463Z,11.00
2018-11-13T03:36:11.171Z,12.47
2018-11-13T03:38:41.953Z,11.13
2018-11-13T03:41:12.850Z,10.53
2018-11-13T03:43:43.485Z,11.40
2018-11-13T03:46:14.351Z,9.93
2018-11-13T03:48:45.063Z,10.57
2018-11-13T03:51:16.159Z,11.43
2018-11-13T03:53:46.769Z,11.23
2018-11-13T03:56:17.351Z,12.00
2018-11-13T03:58:47.975Z,14.00
2018-11-13T04:01:18.663Z,10.20
2018-11-13T04:03:49.321Z,12.87
2018-11-13T04:06:19.965Z,13.10
2018-11-13T04:08:51.252Z,11.20
2018-11-13T04:11:21.856Z,12.73
2018-11-13T04:13:52.453Z,11.93
2018-11-13T04:16:23.011Z,10.80
2018-11-13T04:18:53.625Z,13.50
2018-11-13T04:21:24.504Z,13.03
2018-11-13T04:23:55.311Z,12.77
2018-11-13T04:26:26.197Z,12.70
2018-11-13T04:28:57.148Z,10.70
2018-11-13T04:31:27.760Z,11.20
2018-11-13T04:33:58.408Z,12.70
2018-11-13T04:36:29.037Z,12.90
2018-11-13T04:38:59.424Z,10.83
2018-11-13T04:41:29.775Z,10.50
2018-11-13T04:44:00.623Z,10.57
2018-11-13T04:46:31.208Z,8.90
2018-11-13T04:49:01.808Z,9.37
2018-11-13T04:51:32.535Z,10.40
2018-11-13T04:54:03.241Z,9.57
2018-11-13T04:56:34.040Z,9.23
2018-11-13T04:59:05.264Z,10.40
2018-11-13T05:01:35.971Z,10.70
2018-11-13T05:04:07.132Z,11.07
2018-11-13T05:06:38.352Z,17.33
2018-11-13T05:09:09.113Z,8.80
2018-11-13T05:11:39.740Z,10.53
2018-11-13T05:14:10.332Z,9.60
2018-11-13T05:16:41.365Z,10.10
2018-11-13T05:19:11.949Z,8.23
2018-11-13T05:21:43.152Z,8.33
2018-11-13T05:24:13.991Z,8.30
2018-11-13T05:26:44.655Z,8.07
2018-11-13T05:29:15.296Z,8.63
2018-11-13T05:31:45.871Z,8.93
2018-11-13T05:34:16.461Z,10.20
2018-11-13T05:36:47.310Z,8.87
2018-11-13T05:39:18.005Z,9.90
2018-11-13T05:41:48.947Z,13.83
2018-11-13T05:44:19.728Z,10.53
2018-11-13T05:46:50.517Z,8.40
2018-11-13T05:49:21.192Z,8.60
2018-11-13T05:51:51.788Z,15.60
2018-11-13T05:54:22.462Z,9.03
2018-11-13T05:56:53.047Z,8.43
2018-11-13T05:59:24.006Z,8.27
2018-11-13T06:01:54.683Z,8.13
2018-11-13T06:04:25.036Z,8.30
2018-11-13T06:06:55.828Z,9.50
2018-11-13T06:09:26.658Z,8.67
2018-11-13T06:11:57.567Z,9.37
2018-11-13T06:14:28.192Z,8.70
2018-11-13T06:16:58.861Z,8.27
2018-11-13T06:19:29.732Z,8.57
2018-11-13T06:22:00.348Z,10.23
2018-11-13T06:24:30.955Z,11.83
2018-11-13T06:27:01.534Z,10.33
2018-11-13T06:29:32.248Z,8.83
2018-11-13T06:32:02.982Z,9.63
2018-11-13T06:34:33.802Z,8.87
2018-11-13T06:37:04.379Z,9.90
2018-11-13T06:39:34.987Z,8.67
2018-11-13T06:42:05.939Z,10.50
2018-11-13T06:44:36.286Z,9.67
2018-11-13T06:47:07.520Z,9.50
2018-11-13T06:49:38.139Z,9.00
2018-11-13T06:52:08.952Z,9.40
2018-11-13T06:54:55.692Z,7.90
2018-11-13T06:57:26.283Z,6.60
2018-11-13T06:59:56.894Z,6.03
2018-11-13T07:02:28.433Z,6.43
2018-11-13T07:04:59.326Z,6.43
2018-11-13T07:07:30.366Z,6.20
2018-11-13T07:10:00.939Z,7.10
2018-11-13T07:12:31.864Z,6.33
2018-11-13T07:15:02.444Z,5.93
2018-11-13T07:17:33.312Z,7.47
2018-11-13T07:20:04.269Z,5.57
2018-11-13T07:22:34.883Z,4.90
2018-11-13T07:25:05.983Z,5.70
2018-11-13T07:27:36.843Z,5.93
2018-11-13T07:30:10.268Z,4.07
2018-11-13T07:32:41.363Z,3.97
2018-11-13T07:35:13.284Z,3.23
2018-11-13T07:37:59.324Z,3.80
2018-11-13T07:40:30.019Z,4.10
2018-11-13T07:43:01.685Z,4.33
2018-11-13T07:45:32.276Z,3.80
2018-11-13T07:48:03.288Z,5.20
2018-11-13T07:50:33.964Z,3.70
2018-11-13T07:53:04.552Z,2.30
2018-11-13T07:55:35.125Z,3.37
2018-11-13T07:58:06.000Z,4.47
2018-11-13T08:00:36.588Z,7.73
2018-11-13T08:03:24.072Z,3.40
2018-11-13T08:05:54.591Z,2.93
2018-11-13T08:08:25.192Z,8.37
2018-11-13T08:10:55.976Z,2.90
2018-11-13T08:13:26.558Z,3.10
2018-11-13T08:15:57.321Z,2.90
2018-11-13T08:18:27.923Z,5.00
2018-11-13T08:20:58.826Z,3.60
2018-11-13T08:23:29.582Z,3.03
2018-11-13T08:26:00.217Z,4.40
2018-11-13T08:28:30.845Z,3.97
2018-11-13T08:31:01.623Z,5.83
2018-11-13T08:33:32.214Z,6.03
2018-11-13T08:36:02.823Z,4.43
2018-11-13T08:38:34.423Z,6.27
2018-11-13T08:41:06.376Z,6.37
2018-11-13T08:43:36.735Z,3.90
2018-11-13T08:46:07.547Z,4.10
2018-11-13T08:48:38.163Z,2.80
2018-11-13T08:51:08.737Z,7.20
2018-11-13T08:53:39.319Z,5.10
2018-11-13T08:56:09.919Z,2.87
2018-11-13T08:58:40.512Z,5.70
2018-11-13T09:01:11.360Z,3.43
2018-11-13T09:03:42.957Z,3.30
2018-11-13T09:06:13.617Z,4.93
2018-11-13T09:08:44.202Z,3.30
2018-11-13T09:11:14.813Z,4.10
2018-11-13T09:13:45.588Z,5.37
2018-11-13T09:16:16.399Z,5.20
2018-11-13T09:18:47.243Z,4.17
2018-11-13T09:21:18.188Z,4.33
2018-11-13T09:23:48.759Z,3.70
2018-11-13T09:26:19.684Z,2.93
2018-11-13T09:28:50.299Z,4.30
2018-11-13T09:31:21.615Z,2.60
2018-11-13T09:33:52.420Z,2.27
2018-11-13T09:36:22.988Z,2.63
2018-11-13T09:38:53.591Z,3.47
2018-11-13T09:41:24.352Z,2.07
2018-11-13T09:43:54.953Z,2.33
2018-11-13T09:46:25.568Z,2.03
2018-11-13T09:48:56.316Z,3.83
2018-11-13T09:51:26.896Z,1.97
2018-11-13T09:53:57.507Z,2.90
2018-11-13T09:56:28.141Z,2.23
2018-11-13T09:58:59.015Z,2.87
2018-11-13T10:01:30.086Z,2.80
2018-11-13T10:04:01.329Z,2.00
2018-11-13T10:06:31.483Z,4.03
2018-11-13T10:09:02.179Z,2.90
2018-11-13T10:11:32.497Z,2.27
2018-11-13T10:14:03.108Z,3.63
2018-11-13T10:16:33.730Z,3.60
2018-11-13T10:19:04.530Z,2.43
2018-11-13T10:21:35.192Z,2.70
2018-11-13T10:24:06.871Z,2.57
2018-11-13T10:26:37.469Z,7.30
2018-11-13T10:29:08.423Z,2.90
2018-11-13T10:31:39.040Z,4.03
2018-11-13T10:34:09.837Z,4.60
2018-11-13T10:36:40.437Z,2.27
2018-11-13T10:39:11.528Z,2.80
2018-11-13T10:41:42.370Z,2.83
2018-11-13T10:44:12.944Z,3.80
2018-11-13T10:46:43.531Z,2.10
2018-11-13T10:49:14.153Z,4.73
2018-11-13T10:51:45.237Z,3.17
2018-11-13T10:54:15.808Z,2.90
2018-11-13T10:56:46.420Z,3.40
2018-11-13T10:59:17.021Z,2.60
2018-11-13T11:01:52.931Z,2.90
2018-11-13T11:04:29.072Z,3.83
2018-11-13T11:06:59.952Z,5.03
2018-11-13T11:09:30.628Z,3.77
2018-11-13T11:12:01.200Z,3.10
2018-11-13T11:14:31.537Z,3.23
2018-11-13T11:17:02.277Z,3.70
2018-11-13T11:19:32.953Z,2.90
2018-11-13T11:22:04.085Z,3.57
2018-11-13T11:24:34.665Z,3.47
2018-11-13T11:27:05.644Z,4.03
2018-11-13T11:29:36.207Z,4.30
2018-11-13T11:32:07.284Z,3.40
2018-11-13T11:34:37.892Z,3.70
2018-11-13T11:37:09.438Z,2.33
2018-11-13T11:39:40.006Z,3.20
2018-11-13T11:42:10.698Z,8.70
2018-11-13T11:44:44.112Z,3.43
2018-11-13T11:47:15.004Z,3.40
2018-11-13T11:49:45.607Z,2.63
2018-11-13T11:52:16.559Z,5.20
2018-11-13T11:54:47.152Z,3.40
2018-11-13T11:57:17.762Z,5.20
2018-11-13T11:59:48.364Z,2.10
2018-11-13T12:02:19.394Z,2.83
2018-11-13T12:04:50.196Z,2.40
2018-11-13T12:07:20.797Z,2.10
2018-11-13T12:09:51.493Z,2.93
2018-11-13T12:12:22.162Z,3.80
2018-11-13T12:14:52.908Z,4.00
2018-11-13T12:17:23.507Z,2.10
2018-11-13T12:19:54.437Z,2.70
2018-11-13T12:22:25.004Z,2.67
2018-11-13T12:24:55.651Z,4.00
2018-11-13T12:27:26.601Z,5.73
2018-11-13T12:29:57.272Z,2.77
2018-11-13T12:32:28.086Z,7.13
2018-11-13T12:34:58.776Z,3.50
2018-11-13T12:37:29.378Z,3.93
2018-11-13T12:39:59.980Z,3.30
2018-11-13T12:42:30.650Z,2.87
2018-11-13T12:45:01.260Z,3.10
2018-11-13T12:47:32.600Z,3.90
2018-11-13T12:50:03.233Z,3.57
2018-11-13T12:52:34.584Z,3.33
2018-11-13T12:55:07.084Z,7.90
2018-11-13T12:57:37.771Z,3.23
2018-11-13T13:00:17.348Z,3.00
2018-11-13T13:02:47.962Z,4.07
2018-11-13T13:05:18.608Z,2.60
2018-11-13T13:07:49.247Z,3.53
2018-11-13T13:10:20.761Z,3.63
2018-11-13T13:12:51.723Z,4.67
2018-11-13T13:15:22.352Z,2.40
2018-11-13T13:17:52.979Z,1.93
2018-11-13T13:20:25.263Z,3.30
2018-11-13T13:22:55.900Z,3.33
2018-11-13T13:25:26.499Z,2.90
2018-11-13T13:27:57.126Z,1.93
2018-11-13T13:30:27.855Z,2.03
2018-11-13T13:32:59.283Z,3.17
2018-11-13T13:36:02.537Z,3.80
2018-11-13T13:38:34.963Z,1.97
2018-11-13T13:41:06.288Z,2.70
2018-11-13T13:43:36.704Z,2.20
2018-11-13T13:46:07.320Z,2.13
2018-11-13T13:48:38.699Z,2.03
2018-11-13T13:51:09.318Z,1.70
2018-11-13T13:53:40.358Z,2.43
2018-11-13T13:56:11.085Z,3.73
2018-11-13T13:58:41.702Z,2.37
2018-11-13T14:01:12.090Z,2.00
2018-11-13T14:03:42.912Z,2.63
2018-11-13T14:06:13.760Z,2.40
2018-11-13T14:08:44.428Z,1.93
2018-11-13T14:11:15.175Z,4.77
2018-11-13T14:13:45.807Z,2.10
2018-11-13T14:16:16.441Z,1.97
2018-11-13T14:18:47.047Z,1.80
2018-11-13T14:21:17.663Z,2.10
2018-11-13T14:23:48.264Z,3.07
2018-11-13T14:26:18.884Z,2.20
2018-11-13T14:28:49.518Z,1.83
2018-11-13T14:31:20.296Z,1.50
2018-11-13T14:33:50.922Z,1.90
2018-11-13T14:36:22.748Z,3.50
2018-11-13T14:38:54.765Z,1.90
2018-11-13T14:41:25.428Z,2.43
2018-11-13T14:43:56.023Z,1.73
2018-11-13T14:46:26.689Z,1.70
2018-11-13T14:48:57.485Z,1.90
2018-11-13T14:51:28.316Z,3.23
2018-11-13T14:53:58.958Z,1.90
2018-11-13T14:56:29.732Z,2.70
2018-11-13T14:59:00.322Z,2.07
2018-11-13T15:01:30.932Z,2.00
2018-11-13T15:04:01.738Z,1.83
2018-11-13T15:06:32.736Z,2.53
2018-11-13T15:09:05.111Z,2.50
2018-11-13T15:11:35.749Z,2.13
2018-11-13T15:14:06.477Z,8.80
2018-11-13T15:16:37.066Z,3.53
2018-11-13T15:19:08.051Z,3.50
2018-11-13T15:21:38.705Z,4.60
2018-11-13T15:24:10.340Z,3.00
2018-11-13T15:26:41.116Z,3.10
2018-11-13T15:29:11.733Z,3.27
2018-11-13T15:31:42.591Z,3.70
2018-11-13T15:34:13.234Z,3.10
2018-11-13T15:36:44.198Z,2.90
2018-11-13T15:39:14.588Z,2.27
2018-11-13T15:41:45.195Z,2.47
2018-11-13T15:44:15.829Z,2.10
2018-11-13T15:46:46.420Z,3.17
2018-11-13T15:49:17.204Z,2.20
2018-11-13T15:51:47.974Z,5.23
2018-11-13T15:54:18.667Z,2.83
2018-11-13T15:56:49.296Z,4.23
2018-11-13T15:59:19.940Z,6.30
2018-11-13T16:01:50.565Z,4.00
2018-11-13T16:04:21.204Z,4.80
2018-11-13T16:06:52.011Z,28.03
2018-11-13T16:09:22.832Z,8.80
2018-11-13T16:11:53.489Z,5.80
2018-11-13T16:14:24.117Z,4.20
2018-11-13T16:16:54.715Z,4.03
2018-11-13T16:19:25.524Z,5.43
2018-11-13T16:21:56.160Z,5.40
2018-11-13T16:24:26.975Z,7.63
2018-11-13T16:26:57.560Z,16.43
2018-11-13T16:29:28.144Z,30.17
2018-11-13T16:31:58.856Z,8.23
2018-11-13T16:34:29.744Z,21.23
2018-11-13T16:37:04.234Z,37.10
2018-11-13T16:39:35.039Z,81.47
2018-11-13T16:42:05.786Z,19.13
2018-11-13T16:44:36.618Z,13.50
2018-11-13T16:47:07.759Z,5.80
2018-11-13T16:49:38.384Z,5.80
2018-11-13T16:52:09.049Z,3.90
2018-11-13T16:54:44.901Z,5.53
2018-11-13T16:57:16.728Z,9.37
2018-11-13T16:59:47.785Z,13.73
2018-11-13T17:02:18.427Z,9.70
2018-11-13T17:04:49.208Z,21.30
2018-11-13T17:07:20.846Z,24.23
2018-11-13T17:09:51.560Z,15.20
2018-11-13T17:12:22.169Z,15.93
2018-11-13T17:14:53.552Z,18.80
2018-11-13T17:17:24.551Z,18.13
2018-11-13T17:19:55.644Z,16.60
2018-11-13T17:22:26.291Z,14.27
2018-11-13T17:24:56.940Z,14.70
2018-11-13T17:27:27.582Z,14.33
2018-11-13T17:29:58.508Z,25.40
2018-11-13T17:32:29.292Z,24.17
2018-11-13T17:35:00.188Z,21.67
2018-11-13T17:37:30.826Z,31.37
2018-11-13T17:40:02.939Z,28.20
2018-11-13T17:42:33.741Z,18.27
2018-11-13T17:45:04.585Z,22.27
2018-11-13T17:47:35.189Z,18.80
2018-11-13T17:50:12.025Z,18.50
2018-11-13T17:52:43.537Z,15.30
2018-11-13T17:55:15.404Z,14.37
2018-11-13T17:57:46.904Z,12.80
2018-11-13T18:00:27.744Z,9.73
2018-11-13T18:02:58.463Z,8.67
2018-11-13T18:05:29.841Z,5.10
2018-11-13T18:08:01.353Z,7.73
2018-11-13T18:10:32.926Z,49.40
2018-11-13T18:13:03.640Z,15.83
2018-11-13T18:15:34.256Z,16.63
2018-11-13T18:18:05.526Z,12.20
2018-11-13T18:20:37.231Z,16.63
2018-11-13T18:23:09.256Z,22.20
2018-11-13T18:25:39.632Z,23.23
2018-11-13T18:28:11.015Z,25.73
2018-11-13T18:30:41.972Z,29.30
2018-11-13T18:33:12.818Z,48.10
2018-11-13T18:35:43.476Z,20.43
2018-11-13T18:38:15.741Z,36.23
2018-11-13T18:40:46.693Z,21.20
2018-11-13T18:43:17.347Z,17.40
2018-11-13T18:45:48.284Z,20.70
2018-11-13T18:48:19.235Z,21.37
2018-11-13T18:50:50.208Z,20.70
2018-11-13T18:53:22.086Z,19.80
2018-11-13T18:55:53.016Z,15.20
2018-11-13T18:58:23.646Z,10.87
2018-11-13T19:00:54.533Z,9.60
2018-11-13T19:03:25.454Z,7.73
2018-11-13T19:05:56.372Z,9.33
2018-11-13T19:08:27.620Z,16.83
2018-11-13T19:10:58.413Z,10.27
2018-11-13T19:13:29.282Z,17.47
2018-11-13T19:16:04.237Z,17.53
2018-11-13T19:18:34.962Z,17.70
2018-11-13T19:21:06.482Z,14.87
2018-11-13T19:23:37.498Z,14.97
2018-11-13T19:26:08.272Z,15.80
2018-11-13T19:28:38.940Z,11.40
2018-11-13T19:31:09.643Z,12.83
2018-11-13T19:33:40.392Z,13.27
2018-11-13T19:36:11.365Z,12.37
2018-11-13T19:38:42.053Z,17.47
2018-11-13T19:41:12.868Z,19.00
2018-11-13T19:43:43.476Z,16.17
2018-11-13T19:46:14.101Z,13.30
2018-11-13T19:48:45.651Z,14.60
2018-11-13T19:51:16.351Z,15.10
2018-11-13T19:53:46.994Z,17.67
2018-11-13T19:56:17.833Z,19.80
2018-11-13T19:58:48.583Z,16.73
2018-11-13T20:01:19.617Z,17.17
2018-11-13T20:03:50.252Z,17.37
2018-11-13T20:06:20.935Z,16.87
2018-11-13T20:08:51.553Z,19.60
2018-11-13T20:11:22.244Z,28.03
2018-11-13T20:13:59.651Z,27.47
2018-11-13T20:16:30.541Z,23.33
2018-11-13T20:19:01.119Z,15.03
2018-11-13T20:21:32.857Z,20.37
2018-11-13T20:24:04.061Z,23.83
2018-11-13T20:26:34.840Z,22.80
2018-11-13T20:29:06.063Z,30.03
2018-11-13T20:31:36.861Z,30.43
2018-11-13T20:34:08.080Z,25.30
2018-11-13T20:36:38.669Z,24.23
2018-11-13T20:39:12.940Z,28.40
2018-11-13T20:41:43.524Z,15.53
2018-11-13T20:44:14.132Z,33.37
2018-11-13T20:46:44.707Z,18.23
2018-11-13T20:49:15.319Z,13.00
2018-11-13T20:51:45.948Z,13.07
2018-11-13T20:54:16.532Z,11.60
2018-11-13T20:56:47.161Z,29.07
2018-11-13T20:59:17.463Z,29.60
2018-11-13T21:01:48.132Z,10.60
2018-11-13T21:04:18.923Z,17.20
2018-11-13T21:06:50.820Z,21.83
2018-11-13T21:09:21.450Z,22.07
2018-11-13T21:11:52.393Z,14.57
2018-11-13T21:14:23.015Z,24.03
2018-11-13T21:16:53.712Z,21.37
2018-11-13T21:19:24.473Z,36.20
2018-11-13T21:21:55.379Z,40.20
2018-11-13T21:24:26.225Z,20.73
2018-11-13T21:26:56.570Z,23.20
2018-11-13T21:29:27.412Z,27.13
2018-11-13T21:31:58.348Z,37.70
2018-11-13T21:34:29.332Z,38.63
2018-11-13T21:37:00.920Z,31.83
2018-11-13T21:39:31.616Z,28.33
2018-11-13T21:42:03.298Z,35.13
2018-11-13T21:44:33.899Z,38.63
2018-11-13T21:47:04.951Z,28.20
2018-11-13T21:49:35.631Z,32.20
2018-11-13T21:52:07.500Z,43.87
2018-11-13T21:54:38.096Z,28.73
2018-11-13T21:57:08.754Z,24.03
2018-11-13T21:59:39.071Z,36.63
2018-11-13T22:02:10.015Z,30.03
2018-11-13T22:04:43.939Z,25.50
2018-11-13T22:07:14.704Z,20.57
2018-11-13T22:09:45.583Z,39.70
2018-11-13T22:12:16.424Z,33.43
2018-11-13T22:14:47.459Z,23.50
2018-11-13T22:17:18.734Z,29.40
2018-11-13T22:19:49.271Z,26.50
2018-11-13T22:22:19.912Z,25.27
2018-11-13T22:24:50.633Z,32.43
2018-11-13T22:27:21.328Z,33.87
2018-11-13T22:29:52.167Z,34.03
2018-11-13T22:32:22.782Z,31.03
2018-11-13T22:34:53.363Z,24.73
2018-11-13T22:37:24.052Z,30.53
2018-11-13T22:39:55.464Z,29.63
2018-11-13T22:42:25.848Z,26.93
2018-11-13T22:44:56.452Z,24.60
2018-11-13T22:47:27.036Z,25.00
2018-11-13T22:49:57.911Z,33.60
2018-11-13T22:52:28.692Z,25.47
2018-11-13T22:54:59.435Z,21.23
2018-11-13T22:57:30.129Z,20.13
2018-11-13T23:00:00.770Z,27.60
2018-11-13T23:02:31.560Z,17.00
2018-11-13T23:05:02.194Z,28.83
2018-11-13T23:07:32.492Z,23.37
2018-11-13T23:10:03.108Z,19.50
2018-11-13T23:12:33.680Z,21.03
2018-11-13T23:15:04.454Z,27.33
2018-11-13T23:17:35.198Z,27.20
2018-11-13T23:20:08.047Z,18.93
2018-11-13T23:22:38.694Z,24.00
2018-11-13T23:25:11.742Z,27.07
2018-11-13T23:27:43.367Z,30.13
2018-11-13T23:30:17.577Z,43.17
2018-11-13T23:32:48.547Z,37.27
2018-11-13T23:35:19.401Z,42.90
2018-11-13T23:37:51.201Z,61.40
2018-11-13T23:40:24.614Z,34.07
2018-11-13T23:42:55.497Z,44.45
2018-11-13T23:45:26.995Z,37.03
2018-11-13T23:47:57.440Z,40.77
2018-11-13T23:50:28.028Z,30.20
2018-11-13T23:52:58.620Z,32.90
2018-11-13T23:55:29.221Z,40.50
2018-11-13T23:57:59.974Z,28.47
